Time;durP1;ratioP1;P1;durP2;ratioP2;P2;SDS_P1;SDS_P2;PMS_P1;PMS_P2;Temp;Humidity;BMP_temperature;BMP_pressure;BME280_temperature;BME280_humidity;BME280_pressure;Samples;Min_cycle;Max_cycle;Signal;HPM_P1;HPM_P2
2021/04/16 00:01:39;;;;;;;11.87;5.07;;;;;;;1.42;88.54;100701.21;114723;1202;23145;-57
2021/04/16 00:04:07;;;;;;;13.80;6.03;;;;;;;1.43;88.70;100700.00;114671;1202;23115;-58
2021/04/16 00:06:36;;;;;;;13.85;5.95;;;;;;;1.44;88.43;100696.88;114624;1200;23297;-59
2021/04/16 00:09:06;;;;;;;15.10;5.50;;;;;;;1.45;88.59;100703.13;114786;1202;23262;-59
2021/04/16 00:11:36;;;;;;;16.37;5.50;;;;;;;1.43;88.37;100698.05;114714;1202;27194;-57
2021/04/16 00:14:05;;;;;;;17.33;5.73;;;;;;;1.44;88.50;100693.33;114723;1202;23263;-57
2021/04/16 00:16:33;;;;;;;16.70;6.00;;;;;;;1.45;88.45;100697.63;114709;1202;23224;-59
2021/04/16 00:19:03;;;;;;;13.25;4.75;;;;;;;1.44;88.47;100694.13;114684;1202;23117;-59
2021/04/16 00:21:32;;;;;;;16.80;5.85;;;;;;;1.43;88.57;100684.29;114797;1202;23275;-59
2021/04/16 00:24:01;;;;;;;16.80;6.90;;;;;;;1.45;88.58;100686.63;114504;1202;23124;-60
2021/04/16 00:26:29;;;;;;;16.63;5.33;;;;;;;1.46;88.66;100685.45;114675;1202;23115;-59
2021/04/16 00:28:58;;;;;;;19.50;7.20;;;;;;;1.45;88.76;100683.88;114710;1200;23122;-59
2021/04/16 00:31:29;;;;;;;19.35;7.25;;;;;;;1.44;88.57;100685.87;114737;1200;23122;-59
2021/04/16 00:34:00;;;;;;;19.40;7.55;;;;;;;1.45;88.75;100678.38;114685;1202;23115;-59
2021/04/16 00:36:30;;;;;;;18.20;6.18;;;;;;;1.43;88.48;100678.78;114890;1202;23260;-59
2021/04/16 00:38:59;;;;;;;20.20;7.53;;;;;;;1.45;88.64;100673.66;114914;1202;28437;-60
2021/04/16 00:41:30;;;;;;;17.15;6.15;;;;;;;1.47;88.61;100676.00;114937;1202;23285;-57
2021/04/16 00:43:58;;;;;;;;;;;;;;;1.45;88.51;100670.91;114763;1204;25586;-59
2021/04/16 00:46:38;;;;;;;15.10;5.35;;;;;;;1.44;88.68;100674.08;114752;1202;21746;-58
2021/04/16 00:49:07;;;;;;;;;;;;;;;1.45;88.51;100672.87;114945;1206;23349;-59
2021/04/16 00:51:41;;;;;;;17.65;5.20;;;;;;;1.43;88.49;100669.74;114754;1200;23067;-60
2021/04/16 00:54:16;;;;;;;14.60;5.00;;;;;;;1.44;88.72;100674.08;114809;1202;23138;-59
2021/04/16 00:56:45;;;;;;;10.30;3.33;;;;;;;1.43;88.69;100673.28;114847;1202;23128;-59
2021/04/16 00:59:16;;;;;;;14.35;5.25;;;;;;;1.42;88.82;100673.70;114765;1202;23118;-60
2021/04/16 01:01:44;;;;;;;12.23;5.17;;;;;;;1.42;88.72;100668.20;114772;1202;23185;-57
2021/04/16 01:04:14;;;;;;;16.30;4.70;;;;;;;1.42;88.61;100674.48;114712;1202;24806;-59
2021/04/16 01:06:43;;;;;;;12.00;4.60;;;;;;;1.42;88.79;100666.23;114821;1202;23114;-55
2021/04/16 01:09:11;;;;;;;16.50;5.00;;;;;;;1.42;88.64;100668.20;114786;1202;25211;-58
2021/04/16 01:11:40;;;;;;;11.37;4.33;;;;;;;1.42;88.56;100668.20;114751;1202;23124;-60
2021/04/16 01:14:09;;;;;;;12.03;4.60;;;;;;;1.41;88.63;100663.87;114873;1202;23126;-58
2021/04/16 01:16:39;;;;;;;13.35;5.45;;;;;;;1.40;88.69;100667.83;114723;1202;23161;-60
2021/04/16 01:19:18;;;;;;;13.33;4.87;;;;;;;1.39;88.74;100667.03;114735;1199;26178;-58
2021/04/16 01:21:55;;;;;;;13.03;5.30;;;;;;;1.38;88.65;100664.70;114713;1202;23138;-57
2021/04/16 01:24:26;;;;;;;12.60;5.10;;;;;;;1.38;88.68;100668.23;114808;1200;23145;-60
2021/04/16 01:26:57;;;;;;;14.30;5.20;;;;;;;1.38;88.88;100659.20;114730;1202;23134;-59
2021/04/16 01:29:27;;;;;;;15.67;5.33;;;;;;;1.36;88.76;100665.11;114763;1202;23154;-57
2021/04/16 01:31:56;;;;;;;11.53;4.17;;;;;;;1.37;88.70;100657.62;114747;1202;23179;-59
2021/04/16 01:34:27;;;;;;;16.00;5.90;;;;;;;1.36;88.75;100659.61;114710;1202;23262;-57
2021/04/16 01:36:58;;;;;;;13.75;5.80;;;;;;;1.36;88.82;100661.57;114675;1203;23112;-58
2021/04/16 01:39:30;;;;;;;12.80;5.47;;;;;;;1.37;88.77;100657.62;114772;1202;23122;-57
2021/04/16 01:41:59;;;;;;;12.80;4.70;;;;;;;1.37;88.83;100663.13;114733;1199;24798;-58
2021/04/16 01:44:30;;;;;;;13.95;5.80;;;;;;;1.35;88.86;100660.00;114973;1202;23270;-59
2021/04/16 01:47:02;;;;;;;14.40;5.73;;;;;;;1.34;88.92;100661.98;114850;1200;23262;-57
2021/04/16 01:49:33;;;;;;;16.83;6.40;;;;;;;1.34;88.85;100664.73;114920;1200;27323;-60
2021/04/16 01:52:03;;;;;;;14.90;6.00;;;;;;;1.36;88.79;100656.07;114781;1199;23146;-59
2021/04/16 01:54:35;;;;;;;14.50;5.00;;;;;;;1.38;88.81;100661.95;114780;1200;23267;-58
2021/04/16 01:57:08;;;;;;;12.93;5.33;;;;;;;1.37;89.01;100657.62;114693;1202;23275;-59
2021/04/16 01:59:38;;;;;;;14.00;5.60;;;;;;;1.39;88.85;100652.49;114794;1202;26932;-57
2021/04/16 02:02:11;;;;;;;14.90;5.70;;;;;;;1.39;88.91;100649.73;114827;1203;23273;-58
2021/04/16 02:04:40;;;;;;;13.95;5.05;;;;;;;1.39;88.87;100650.53;114914;1202;23102;-59
2021/04/16 02:07:09;;;;;;;17.30;7.10;;;;;;;1.40;88.93;100651.31;114853;1203;23130;-56
2021/04/16 02:09:39;;;;;;;14.03;5.40;;;;;;;1.40;88.74;100659.57;114787;1202;26322;-58
2021/04/16 02:12:20;;;;;;;16.70;6.40;;;;;;;1.41;89.15;100650.11;114818;1202;25996;-60
2021/04/16 02:14:50;;;;;;;12.90;5.40;;;;;;;1.41;88.90;100652.86;114750;1200;23131;-58
2021/04/16 02:17:21;;;;;;;12.55;4.30;;;;;;;1.40;88.71;100654.86;114797;1202;23167;-59
2021/04/16 02:19:50;;;;;;;15.30;5.75;;;;;;;1.41;88.92;100648.15;114870;1202;24809;-57
2021/04/16 02:22:21;;;;;;;15.25;5.60;;;;;;;1.41;89.10;100659.16;114775;1202;23296;-60
2021/04/16 02:24:50;;;;;;;12.80;5.17;;;;;;;1.42;88.97;100652.48;114814;1199;23125;-59
2021/04/16 02:27:23;;;;;;;15.20;5.00;;;;;;;1.42;88.94;100644.23;114756;1202;23128;-58
2021/04/16 02:29:52;;;;;;;15.23;6.20;;;;;;;1.43;88.86;100654.03;114775;1200;23651;-56
2021/04/16 02:32:21;;;;;;;15.50;6.00;;;;;;;1.44;88.97;100655.61;114760;1202;23111;-60
2021/04/16 02:34:50;;;;;;;17.90;6.30;;;;;;;1.45;88.88;100653.61;114732;1202;23396;-59
2021/04/16 02:37:22;;;;;;;15.37;5.80;;;;;;;1.46;88.87;100655.19;114635;1202;23127;-60
2021/04/16 02:39:51;;;;;;;15.60;5.55;;;;;;;1.46;88.94;100649.69;114811;1200;23148;-57
2021/04/16 02:42:20;;;;;;;15.35;5.70;;;;;;;1.47;88.84;100656.73;115130;1200;23121;-58
2021/04/16 02:44:49;;;;;;;16.60;6.05;;;;;;;1.48;88.96;100650.06;114747;1199;24441;-59
2021/04/16 02:47:18;;;;;;;16.93;6.30;;;;;;;1.48;88.86;100652.81;114678;1202;23122;-59
2021/04/16 02:49:48;;;;;;;16.80;6.10;;;;;;;1.48;89.06;100650.84;114724;1202;26590;-58
2021/04/16 02:52:17;;;;;;;14.53;5.17;;;;;;;1.48;89.08;100652.81;114791;1202;24797;-57
2021/04/16 02:54:46;;;;;;;13.70;5.35;;;;;;;1.47;88.94;100654.77;114722;1202;28153;-60
2021/04/16 02:57:15;;;;;;;17.60;6.67;;;;;;;1.49;89.07;100654.39;114683;1200;25962;-60
2021/04/16 02:59:44;;;;;;;14.40;5.45;;;;;;;1.49;88.97;100646.89;114856;1202;24805;-59
2021/04/16 03:02:13;;;;;;;18.10;7.60;;;;;;;1.49;89.00;100641.39;114808;1202;26247;-58
2021/04/16 03:04:42;;;;;;;14.73;5.40;;;;;;;1.51;89.07;100646.50;115079;1202;23124;-57
2021/04/16 03:07:11;;;;;;;15.25;5.40;;;;;;;1.51;89.05;100641.00;114709;1202;23114;-58
2021/04/16 03:09:40;;;;;;;14.70;5.70;;;;;;;1.51;89.12;100641.77;114804;1202;23131;-59
2021/04/16 03:12:10;;;;;;;14.83;6.23;;;;;;;1.52;89.04;100645.30;114693;1200;24764;-58
2021/04/16 03:14:40;;;;;;;17.45;6.48;;;;;;;1.52;89.21;100648.05;114952;1200;23145;-58
2021/04/16 03:17:09;;;;;;;17.67;5.83;;;;;;;1.52;89.18;100654.34;114718;1200;28332;-58
2021/04/16 03:19:37;;;;;;;15.75;6.10;;;;;;;1.51;89.37;100646.50;114673;1199;23267;-58
2021/04/16 03:22:06;;;;;;;19.80;7.05;;;;;;;1.51;89.29;100644.52;114730;1202;26860;-61
2021/04/16 03:24:35;;;;;;;16.90;6.10;;;;;;;1.53;89.21;100646.88;115183;1164;24746;-55
2021/04/16 03:27:04;;;;;;;13.60;6.10;;;;;;;1.53;89.16;100644.88;114818;1200;23137;-55
2021/04/16 03:29:34;;;;;;;14.07;5.67;;;;;;;1.54;89.28;100634.67;114723;1202;23142;-52
2021/04/16 03:32:04;;;;;;;14.10;5.47;;;;;;;1.54;89.40;100626.41;114687;1202;24292;-52
2021/04/16 03:34:33;;;;;;;15.20;6.00;;;;;;;1.55;89.18;100633.50;114725;1200;23244;-53
2021/04/16 03:37:01;;;;;;;17.45;5.95;;;;;;;1.55;89.43;100631.50;114671;1203;23160;-52
2021/04/16 03:39:30;;;;;;;16.13;6.93;;;;;;;1.56;89.20;100635.04;114704;1199;23142;-53
2021/04/16 03:41:58;;;;;;;16.67;6.90;;;;;;;1.56;89.24;100629.53;114713;1202;27293;-52
2021/04/16 03:44:27;;;;;;;19.43;8.67;;;;;;;1.56;89.58;100638.58;114715;1202;23249;-55
2021/04/16 03:46:56;;;;;;;20.15;7.80;;;;;;;1.56;89.32;100637.80;114725;1202;23117;-52
2021/04/16 03:49:24;;;;;;;15.70;6.70;;;;;;;1.58;89.57;100635.41;114718;1202;26385;-52
2021/04/16 03:51:56;;;;;;;16.10;6.60;;;;;;;1.58;89.51;100644.45;114574;1203;23124;-54
2021/04/16 03:54:27;;;;;;;15.75;6.35;;;;;;;1.58;89.73;100635.41;114729;1203;23144;-54
2021/04/16 03:56:56;;;;;;;18.80;7.70;;;;;;;1.58;89.54;100638.16;114691;1202;23470;-52
2021/04/16 03:59:25;;;;;;;14.20;5.20;;;;;;;1.58;89.58;100638.16;114680;1203;23121;-52
2021/04/16 04:01:54;;;;;;;14.93;5.35;;;;;;;1.59;89.55;100642.49;114676;1203;23150;-53
2021/04/16 04:04:23;;;;;;;11.60;4.50;;;;;;;1.59;89.52;100645.24;114648;1202;24750;-55
2021/04/16 04:06:52;;;;;;;17.77;7.43;;;;;;;1.60;89.56;100652.30;114624;1200;23098;-53
2021/04/16 04:09:21;;;;;;;16.60;6.10;;;;;;;1.60;89.65;100644.83;114667;1202;27228;-52
2021/04/16 04:11:50;;;;;;;16.25;6.65;;;;;;;1.60;89.71;100644.04;114659;1202;23111;-52
2021/04/16 04:14:19;;;;;;;16.80;6.80;;;;;;;1.60;89.62;100647.58;114646;1202;27354;-52
2021/04/16 04:16:54;;;;;;;18.53;6.77;;;;;;;1.64;89.81;100653.04;114581;1200;26268;-52
2021/04/16 04:19:25;;;;;;;17.80;6.60;;;;;;;1.64;89.59;100642.82;114707;1202;23131;-52
2021/04/16 04:21:55;;;;;;;16.20;6.27;;;;;;;1.64;89.78;100645.57;114673;1202;26131;-56
2021/04/16 04:24:24;;;;;;;15.83;6.03;;;;;;;1.64;89.88;100644.78;114770;1203;23137;-52
2021/04/16 04:26:53;;;;;;;15.55;5.40;;;;;;;1.65;89.97;100644.36;115167;1202;23182;-54
2021/04/16 04:29:25;;;;;;;13.45;5.65;;;;;;;1.67;90.05;100637.69;114844;1202;27076;-53
2021/04/16 04:31:54;;;;;;;14.90;6.00;;;;;;;1.67;89.99;100643.98;114813;1202;23567;-53
2021/04/16 04:34:26;;;;;;;11.87;3.80;;;;;;;1.67;89.82;100646.73;114708;1202;23446;-53
2021/04/16 04:36:57;;;;;;;16.17;6.37;;;;;;;1.67;90.00;100643.98;114695;1202;23114;-52
2021/04/16 04:39:29;;;;;;;15.80;5.50;;;;;;;1.69;90.21;100649.86;114584;1203;23140;-53
2021/04/16 04:41:58;;;;;;;16.60;5.80;;;;;;;1.72;89.98;100645.51;114674;1200;24790;-53
2021/04/16 04:44:27;;;;;;;17.87;6.13;;;;;;;1.73;90.15;100653.35;114900;1199;23119;-52
2021/04/16 04:46:55;;;;;;;16.35;6.60;;;;;;;1.76;90.03;100643.50;114664;1202;23111;-54
2021/04/16 04:49:24;;;;;;;14.30;6.20;;;;;;;1.76;89.98;100641.51;114622;1203;23114;-53
2021/04/16 04:52:10;;;;;;;17.70;6.60;;;;;;;1.78;90.12;100650.13;114745;1199;23138;-54
2021/04/16 04:54:38;;;;;;;14.60;5.90;;;;;;;1.79;90.40;100651.71;114757;1202;24418;-52
2021/04/16 04:57:08;;;;;;;16.65;6.45;;;;;;;1.80;89.98;100647.75;114597;1201;23115;-53
2021/04/16 04:59:37;;;;;;;17.90;6.25;;;;;;;1.82;90.24;100650.12;114873;1200;23122;-53
2021/04/16 05:02:06;;;;;;;17.50;6.73;;;;;;;1.85;90.11;100654.78;114749;1202;23119;-55
2021/04/16 05:04:35;;;;;;;16.20;5.80;;;;;;;1.86;90.30;100662.66;114735;1203;23265;-51
2021/04/16 05:07:04;;;;;;;17.40;6.30;;;;;;;1.88;90.32;100663.03;114687;1202;26303;-52
2021/04/16 05:09:33;;;;;;;14.75;5.05;;;;;;;1.89;90.14;100650.81;114759;1203;23112;-52
2021/04/16 05:12:02;;;;;;;15.20;5.13;;;;;;;1.92;90.28;100652.75;114560;1200;24753;-53
2021/04/16 05:14:32;;;;;;;17.70;6.50;;;;;;;1.94;90.23;100655.09;114852;1199;23118;-52
2021/04/16 05:17:00;;;;;;;16.03;5.93;;;;;;;1.97;90.31;100657.80;114903;1203;23264;-56
2021/04/16 05:19:30;;;;;;;17.15;6.90;;;;;;;1.99;90.40;100654.63;114881;1202;26724;-53
2021/04/16 05:22:01;;;;;;;16.83;4.57;;;;;;;2.03;90.44;100658.14;114956;1203;26469;-54
2021/04/16 05:24:32;;;;;;;15.97;5.77;;;;;;;2.04;90.40;100654.19;114736;1202;23114;-54
2021/04/16 05:27:02;;;;;;;12.17;4.47;;;;;;;2.05;90.32;100656.52;114477;1202;23423;-52
2021/04/16 05:29:31;;;;;;;15.90;6.00;;;;;;;2.09;90.46;100659.25;114613;1202;23118;-52
2021/04/16 05:32:00;;;;;;;14.00;5.90;;;;;;;2.12;90.31;100661.17;114594;1202;25436;-57
2021/04/16 05:34:30;;;;;;;14.40;5.55;;;;;;;2.13;90.48;100660.75;114859;1203;23177;-55
2021/04/16 05:36:59;;;;;;;15.80;6.20;;;;;;;2.15;90.29;100661.12;114625;1202;23109;-53
2021/04/16 05:39:29;;;;;;;16.35;6.20;;;;;;;2.17;90.44;100658.73;115307;1199;26946;-55
2021/04/16 05:41:57;;;;;;;18.83;7.17;;;;;;;2.20;90.63;100659.89;114713;1203;26239;-51
2021/04/16 05:44:27;;;;;;;15.70;6.00;;;;;;;2.21;90.39;100658.70;114635;1203;23150;-54
2021/04/16 05:46:56;;;;;;;16.95;7.28;;;;;;;2.22;90.47;100655.53;114610;1205;23146;-55
2021/04/16 05:49:25;;;;;;;19.33;8.07;;;;;;;2.25;90.55;100660.23;114840;1203;23151;-55
2021/04/16 05:51:54;;;;;;;16.80;7.40;;;;;;;2.26;90.50;100667.29;114711;1201;23292;-54
2021/04/16 05:54:24;;;;;;;19.10;8.33;;;;;;;2.28;90.39;100669.63;114625;1200;26162;-55
2021/04/16 05:56:53;;;;;;;18.40;6.83;;;;;;;2.29;90.42;100674.74;114698;1203;23134;-56
2021/04/16 05:59:23;;;;;;;16.40;6.50;;;;;;;2.30;90.44;100676.28;114679;1200;24749;-57
2021/04/16 06:01:51;;;;;;;14.85;6.05;;;;;;;2.32;90.52;100673.90;114949;1202;23222;-57
2021/04/16 06:04:24;;;;;;;14.50;5.90;;;;;;;2.34;90.57;100671.52;114730;1202;23137;-57
2021/04/16 06:06:52;;;;;;;15.40;6.90;;;;;;;2.36;90.52;100671.88;114908;1200;23258;-57
2021/04/16 06:09:21;;;;;;;17.05;7.75;;;;;;;2.39;90.60;100676.58;114673;1202;26096;-57
2021/04/16 06:11:50;;;;;;;17.93;8.13;;;;;;;2.40;90.72;100675.37;114502;1202;23127;-56
2021/04/16 06:14:19;;;;;;;16.40;6.43;;;;;;;2.43;90.61;100673.77;114675;1202;23204;-55
2021/04/16 06:16:48;;;;;;;18.20;7.60;;;;;;;2.44;90.58;100676.10;114572;1199;23119;-57
2021/04/16 06:19:17;;;;;;;14.25;5.70;;;;;;;2.48;90.63;100664.27;114835;1199;23115;-56
2021/04/16 06:21:46;;;;;;;11.87;4.27;;;;;;;2.50;90.68;100670.14;114761;1200;26360;-55
2021/04/16 06:24:15;;;;;;;11.70;3.70;;;;;;;2.51;90.78;100672.48;114806;1202;23250;-57
2021/04/16 06:26:45;;;;;;;12.27;4.40;;;;;;;2.53;90.83;100672.06;114891;1200;24448;-55
2021/04/16 06:29:14;;;;;;;12.55;4.75;;;;;;;2.55;90.58;100675.17;114980;1200;27224;-55
2021/04/16 06:31:42;;;;;;;12.55;4.05;;;;;;;2.56;90.92;100674.00;115043;1200;25409;-57
2021/04/16 06:34:11;;;;;;;14.27;5.70;;;;;;;2.56;90.58;100661.01;114676;1200;23124;-56
2021/04/16 06:36:40;;;;;;;14.73;5.60;;;;;;;2.59;90.73;100665.67;114826;1203;23121;-55
2021/04/16 06:39:09;;;;;;;14.63;6.07;;;;;;;2.62;90.56;100673.13;114998;1198;26906;-55
2021/04/16 06:41:40;;;;;;;14.40;5.75;;;;;;;2.63;90.48;100665.64;114704;1202;25064;-56
2021/04/16 06:44:16;;;;;;;13.80;5.30;;;;;;;2.67;90.63;100667.13;114689;1203;27242;-56
2021/04/16 06:46:49;;;;;;;13.70;5.60;;;;;;;2.67;90.71;100671.89;114790;1202;23131;-57
2021/04/16 06:49:21;;;;;;;14.40;5.50;;;;;;;2.69;90.75;100661.98;114687;1202;23136;-57
2021/04/16 06:52:01;;;;;;;12.60;4.90;;;;;;;2.72;90.64;100665.89;114658;1200;23276;-56
2021/04/16 06:54:40;;;;;;;13.15;4.95;;;;;;;2.75;90.66;100667.83;114828;1201;23138;-55
2021/04/16 06:57:23;;;;;;;15.47;6.50;;;;;;;2.77;90.77;100676.47;114746;1199;26242;-57
2021/04/16 06:59:59;;;;;;;9.33;3.50;;;;;;;2.79;90.66;100680.38;114671;1200;23139;-57
2021/04/16 07:02:35;;;;;;;15.35;5.55;;;;;;;2.81;90.85;100674.44;114781;1200;27412;-56
2021/04/16 07:05:10;;;;;;;14.30;5.70;;;;;;;2.84;90.45;100679.11;114804;1202;23118;-57
2021/04/16 07:07:42;;;;;;;16.30;4.75;;;;;;;2.84;90.85;100671.63;114954;1200;23125;-54
2021/04/16 07:10:17;;;;;;;12.60;4.70;;;;;;;2.86;90.72;100674.74;114793;1200;23292;-56
2021/04/16 07:12:48;;;;;;;13.47;5.93;;;;;;;2.88;90.48;100677.08;114926;1202;23253;-56
2021/04/16 07:15:21;;;;;;;14.20;5.50;;;;;;;2.89;90.70;100679.44;115311;1202;23356;-56
2021/04/16 07:17:50;;;;;;;15.00;7.00;;;;;;;2.91;90.55;100676.26;114794;1200;23121;-57
2021/04/16 07:20:22;;;;;;;14.85;5.75;;;;;;;2.93;90.33;100676.63;114814;1200;27135;-56
2021/04/16 07:22:53;;;;;;;14.50;6.15;;;;;;;2.94;90.50;100678.16;114924;1202;27367;-57
2021/04/16 07:25:24;;;;;;;;;;;;;;;2.95;90.47;100666.73;114586;1206;23254;-56
2021/04/16 07:27:56;;;;;;;12.90;5.60;;;;;;;2.98;90.60;100670.64;114734;1200;24525;-57
2021/04/16 07:30:45;;;;;;;13.00;5.90;;;;;;;3.00;90.50;100676.52;114766;1202;23128;-54
2021/04/16 07:33:32;;;;;;;16.17;6.50;;;;;;;3.00;90.64;100671.01;114861;1202;26152;-54
2021/04/16 07:36:22;;;;;;;12.90;5.53;;;;;;;3.03;90.64;100678.44;114680;1202;23142;-56
2021/04/16 07:39:06;;;;;;;13.77;5.57;;;;;;;3.04;90.65;100680.01;114703;1202;23137;-56
2021/04/16 07:41:42;;;;;;;14.10;5.95;;;;;;;3.05;90.75;100678.80;114732;1203;28053;-56
2021/04/16 07:44:21;;;;;;;16.23;6.40;;;;;;;3.06;90.53;100675.61;114572;1202;27349;-55
2021/04/16 07:46:53;;;;;;;16.05;6.65;;;;;;;3.08;90.79;100675.97;114909;1202;23119;-57
2021/04/16 07:49:30;;;;;;;17.07;7.53;;;;;;;3.09;90.71;100676.77;114840;1202;23221;-56
2021/04/16 07:52:18;;;;;;;16.75;7.20;;;;;;;3.10;90.50;100684.61;114706;1203;23182;-57
2021/04/16 07:55:21;;;;;;;21.10;8.73;;;;;;;3.14;90.51;100684.58;114688;1203;23260;-54
2021/04/16 07:58:07;;;;;;;21.15;7.15;;;;;;;3.16;90.61;100687.70;114732;1202;23132;-56
2021/04/16 08:00:38;;;;;;;17.20;6.55;;;;;;;3.17;90.72;100695.55;117134;1200;23183;-58
2021/04/16 08:03:11;;;;;;;15.80;6.80;;;;;;;3.19;90.60;100695.91;114581;1202;23118;-55
2021/04/16 08:05:43;;;;;;;17.50;6.40;;;;;;;3.20;90.70;100697.48;114945;1202;27320;-57
2021/04/16 08:08:22;;;;;;;17.70;8.60;;;;;;;3.24;90.46;100694.66;114865;1202;23107;-57
2021/04/16 08:10:54;;;;;;;12.60;5.45;;;;;;;3.24;90.46;100689.14;114751;1202;23352;-57
2021/04/16 08:13:26;;;;;;;14.15;5.50;;;;;;;3.25;90.88;100687.93;115751;1199;23115;-58
2021/04/16 08:16:10;;;;;;;15.20;6.90;;;;;;;3.25;90.50;100680.44;115496;1199;23176;-56
2021/04/16 08:18:41;;;;;;;15.80;6.10;;;;;;;3.27;90.61;100686.32;115703;1199;23145;-61
2021/04/16 08:21:17;;;;;;;15.55;6.55;;;;;;;3.30;90.61;100684.70;115229;1202;25979;-59
2021/04/16 08:23:51;;;;;;;15.17;5.73;;;;;;;3.31;90.63;100691.77;115276;1202;23196;-57
2021/04/16 08:26:25;;;;;;;16.47;5.80;;;;;;;3.33;90.51;100686.64;115099;1200;23124;-57
2021/04/16 08:28:59;;;;;;;16.80;6.60;;;;;;;3.34;90.20;100687.41;115241;1200;24879;-59
2021/04/16 08:31:35;;;;;;;15.77;5.93;;;;;;;3.34;90.32;100696.47;115340;1199;23227;-59
2021/04/16 08:34:07;;;;;;;18.63;6.93;;;;;;;3.35;90.46;100698.04;115196;1200;27249;-56
2021/04/16 08:36:40;;;;;;;16.30;5.40;;;;;;;3.33;90.41;100697.68;115577;1199;23118;-61
2021/04/16 08:39:15;;;;;;;13.53;5.97;;;;;;;3.34;90.36;100704.75;115419;1199;26240;-59
2021/04/16 08:41:50;;;;;;;15.55;5.70;;;;;;;3.35;90.45;100700.02;115208;1200;23116;-57
2021/04/16 08:44:19;;;;;;;12.65;4.40;;;;;;;3.36;90.51;100701.56;115407;1200;23153;-59
2021/04/16 08:46:49;;;;;;;17.43;5.90;;;;;;;3.38;90.25;100705.47;115500;1202;23098;-60
2021/04/16 08:49:23;;;;;;;12.13;5.08;;;;;;;3.37;90.26;100694.86;115391;1200;23233;-56
2021/04/16 08:52:00;;;;;;;10.57;3.70;;;;;;;3.39;90.14;100706.25;115425;1200;23169;-57
2021/04/16 08:54:32;;;;;;;15.23;4.40;;;;;;;3.38;90.12;100699.16;115326;1203;23093;-59
2021/04/16 08:57:07;;;;;;;13.90;4.35;;;;;;;3.38;90.17;100704.68;115259;1200;23115;-58
2021/04/16 08:59:45;;;;;;;17.00;5.60;;;;;;;3.38;90.03;100707.44;115264;1202;23138;-61
2021/04/16 09:02:19;;;;;;;13.80;4.60;;;;;;;3.39;90.16;100712.56;114797;1200;27364;-58
2021/04/16 09:04:51;;;;;;;13.40;5.00;;;;;;;3.41;90.20;100706.62;114923;1199;23105;-58
2021/04/16 09:07:33;;;;;;;14.43;5.47;;;;;;;3.42;90.05;100708.95;115250;1199;23172;-59
2021/04/16 09:10:05;;;;;;;14.20;5.15;;;;;;;3.46;90.13;100711.64;115286;1200;27309;-57
2021/04/16 09:12:48;;;;;;;15.50;3.80;;;;;;;3.46;90.11;100706.13;115245;1200;23254;-59
2021/04/16 09:15:44;;;;;;;11.60;4.60;;;;;;;3.48;89.96;100704.51;115953;1199;24784;-58
2021/04/16 09:18:32;;;;;;;11.40;4.10;;;;;;;3.48;90.13;100712.79;115505;1202;23144;-60
2021/04/16 09:21:23;;;;;;;14.80;5.15;;;;;;;3.51;89.84;100711.17;115578;1203;23124;-58
2021/04/16 09:23:52;;;;;;;;;;;;;;;3.53;90.20;100723.37;115121;1207;24900;-58
2021/04/16 09:26:56;;;;;;;9.80;3.00;;;;;;;3.55;90.14;100709.14;115054;1203;21695;-58
2021/04/16 09:29:40;;;;;;;13.05;3.25;;;;;;;3.58;89.76;100713.83;115242;1202;23160;-57
2021/04/16 09:32:49;;;;;;;11.55;3.20;;;;;;;3.61;89.87;100715.73;115171;1205;23131;-59
2021/04/16 09:35:54;;;;;;;9.20;2.60;;;;;;;3.63;89.69;100716.88;115008;1203;23132;-57
2021/04/16 09:38:47;;;;;;;10.60;2.15;;;;;;;3.64;89.80;100718.42;115066;1203;23137;-57
2021/04/16 09:41:34;;;;;;;9.60;3.00;;;;;;;3.67;89.25;100727.86;115042;1203;23221;-55
2021/04/16 09:44:45;;;;;;;9.10;2.50;;;;;;;3.66;89.13;100721.55;115040;1203;23138;-57
2021/04/16 09:47:42;;;;;;;9.70;2.67;;;;;;;3.64;89.34;100721.19;115053;1202;23344;-57
2021/04/16 09:50:27;;;;;;;9.15;2.15;;;;;;;3.65;89.35;100735.78;115284;1202;23282;-54
2021/04/16 09:53:15;;;;;;;8.50;2.90;;;;;;;3.63;89.24;100722.41;114909;1203;26261;-56
2021/04/16 09:56:09;;;;;;;9.40;2.10;;;;;;;3.63;89.13;100727.92;115086;1198;24777;-57
2021/04/16 09:59:28;;;;;;;9.30;2.45;;;;;;;3.62;89.00;100731.88;115115;1199;24632;-57
2021/04/16 10:02:21;;;;;;;11.57;4.10;;;;;;;3.62;89.22;100742.91;115267;1200;23553;-55
2021/04/16 10:05:12;;;;;;;10.10;3.40;;;;;;;3.62;89.43;100739.39;115429;1199;23114;-56
2021/04/16 10:07:51;;;;;;;12.30;3.45;;;;;;;3.63;89.37;100735.42;115881;1199;23143;-57
2021/04/16 10:10:32;;;;;;;8.80;3.10;;;;;;;3.64;89.46;100739.75;115487;1200;23176;-58
2021/04/16 10:13:31;;;;;;;13.60;2.87;;;;;;;3.64;89.42;100729.47;115328;1199;23203;-59
2021/04/16 10:16:35;;;;;;;8.60;3.20;;;;;;;3.65;89.34;100719.22;114993;1200;23112;-56
2021/04/16 10:19:14;;;;;;;9.30;3.20;;;;;;;3.65;89.03;100713.69;114868;1200;23260;-57
2021/04/16 10:21:49;;;;;;;15.25;4.30;;;;;;;3.65;89.02;100719.22;115087;1200;23124;-60
2021/04/16 12:40:08;;;;;;;15.95;5.80;;;;;;;4.36;88.00;100721.45;114740;1200;24492;-59
2021/04/16 12:42:37;;;;;;;19.80;6.20;;;;;;;4.39;87.98;100734.41;114830;1202;23111;-58
2021/04/16 12:45:11;;;;;;;15.75;5.85;;;;;;;4.41;88.23;100726.47;114775;1202;23144;-56
2021/04/16 12:47:40;;;;;;;18.20;5.70;;;;;;;4.43;87.99;100724.09;114514;1202;23141;-57
2021/04/16 12:50:13;;;;;;;19.27;6.03;;;;;;;4.43;87.68;100722.09;114872;1200;23134;-58
2021/04/16 12:52:42;;;;;;;15.25;4.85;;;;;;;4.42;87.23;100731.59;115878;1202;23111;-57
2021/04/16 12:55:14;;;;;;;11.40;4.60;;;;;;;4.42;87.50;100722.52;115098;1202;23118;-57
2021/04/16 12:57:45;;;;;;;17.93;5.47;;;;;;;4.41;87.41;100729.23;114950;1200;23129;-58
2021/04/16 13:00:18;;;;;;;16.10;6.10;;;;;;;4.41;87.73;100720.95;114698;1202;25990;-56
2021/04/16 13:02:48;;;;;;;20.27;4.80;;;;;;;4.43;87.61;100719.32;114964;1202;23115;-57
2021/04/16 13:05:18;;;;;;;16.63;5.90;;;;;;;4.44;87.69;100723.66;114675;1202;28371;-56
2021/04/16 13:07:46;;;;;;;17.80;7.05;;;;;;;4.46;87.76;100714.93;115063;1199;23176;-57
2021/04/16 13:10:18;;;;;;;14.10;5.90;;;;;;;4.49;87.81;100719.63;114591;1202;23122;-57
2021/04/16 13:12:47;;;;;;;18.40;6.80;;;;;;;4.52;87.69;100710.45;114685;1199;23155;-57
2021/04/16 13:15:18;;;;;;;16.93;6.40;;;;;;;4.51;87.27;100708.91;114725;1202;23118;-57
2021/04/16 13:17:53;;;;;;;15.60;5.95;;;;;;;4.51;87.57;100706.16;115007;1200;26152;-57
2021/04/16 13:20:23;;;;;;;20.00;7.37;;;;;;;4.52;87.42;100704.93;114825;1200;28191;-57
2021/04/16 13:22:52;;;;;;;;;;;;;;;4.54;87.36;100697.77;114775;1206;23115;-57
2021/04/16 13:25:24;;;;;;;17.97;5.80;;;;;;;4.59;87.59;100693.73;114513;1202;21890;-57
2021/04/16 13:27:54;;;;;;;16.75;6.80;;;;;;;4.65;87.45;100692.02;114982;1202;23375;-57
2021/04/16 13:30:27;;;;;;;17.50;7.45;;;;;;;4.69;87.36;100693.51;115085;1200;23260;-62
2021/04/16 13:33:00;;;;;;;15.00;5.77;;;;;;;4.69;86.46;100701.02;115532;1199;23210;-57
2021/04/16 13:35:33;;;;;;;17.50;6.83;;;;;;;4.65;86.18;100687.28;115871;1202;27130;-55
2021/04/16 13:38:04;;;;;;;17.87;7.87;;;;;;;4.63;86.61;100694.44;114807;1202;25567;-57
2021/04/16 13:40:33;;;;;;;19.10;6.80;;;;;;;4.60;86.20;100690.53;114802;1200;26159;-57
2021/04/16 13:43:03;;;;;;;17.00;7.35;;;;;;;4.60;86.82;100687.77;114869;1200;23500;-58
2021/04/16 13:45:32;;;;;;;17.40;5.30;;;;;;;4.59;86.02;100690.97;115156;1200;23356;-58
2021/04/16 13:48:03;;;;;;;17.45;7.40;;;;;;;4.57;86.37;100690.61;114604;1202;23131;-58
2021/04/16 13:50:31;;;;;;;;;;;;;;;4.55;86.52;100693.79;114933;1206;23119;-56
2021/04/16 13:53:00;;;;;;;17.60;6.60;;;;;;;4.53;86.65;100695.45;114896;1202;21814;-55
2021/04/16 13:55:30;;;;;;;18.25;5.80;;;;;;;4.50;86.52;100696.28;114755;1202;23172;-58
2021/04/16 13:57:59;;;;;;;18.55;7.45;;;;;;;4.47;86.57;100700.67;115264;1202;23260;-58
2021/04/16 14:00:30;;;;;;;22.83;7.27;;;;;;;4.46;86.90;100704.66;114834;1200;24584;-58
2021/04/16 14:03:03;;;;;;;15.85;7.05;;;;;;;4.45;86.52;100703.08;114914;1200;23147;-56